Time;durP1;ratioP1;P1;durP2;ratioP2;P2;SDS_P1;SDS_P2;PMS_P1;PMS_P2;Temp;Humidity;BMP_temperature;BMP_pressure;BME280_temperature;BME280_humidity;BME280_pressure;Samples;Min_cycle;Max_cycle;Signal;HPM_P1;HPM_P2
2024/01/12 00:00:35;;;;;;;43.92;27.63;;;-2.50;99.90;;;;;;5011322;28;20812;-70
2024/01/12 00:03:02;;;;;;;41.07;26.53;;;-2.50;99.90;;;;;;5022552;28;20213;-65
2024/01/12 00:05:29;;;;;;;42.53;26.00;;;-2.60;99.90;;;;;;5024661;28;20260;-62
2024/01/12 00:07:56;;;;;;;42.70;26.80;;;-2.60;99.90;;;;;;5025572;28;20226;-66
2024/01/12 00:10:24;;;;;;;46.67;27.40;;;-2.70;99.90;;;;;;5024092;28;20206;-65
2024/01/12 00:12:51;;;;;;;46.50;27.13;;;-2.70;99.90;;;;;;5022278;28;20207;-60
2024/01/12 00:15:17;;;;;;;43.43;26.37;;;-2.80;99.90;;;;;;5022758;28;20700;-61
2024/01/12 00:17:44;;;;;;;44.87;27.40;;;-2.80;99.90;;;;;;5025547;28;20248;-61
2024/01/12 00:20:12;;;;;;;42.23;25.97;;;-2.80;99.90;;;;;;5025517;28;20531;-61
2024/01/12 00:22:38;;;;;;;42.70;26.23;;;-2.90;99.90;;;;;;5022047;28;20203;-61
2024/01/12 00:25:06;;;;;;;46.30;27.13;;;-2.90;99.90;;;;;;5021820;28;20207;-60
2024/01/12 00:27:34;;;;;;;38.63;25.13;;;-2.90;99.90;;;;;;5025097;28;20691;-61
2024/01/12 00:30:00;;;;;;;39.90;25.40;;;-2.90;99.90;;;;;;5025257;28;20199;-61
2024/01/12 00:32:27;;;;;;;42.07;25.87;;;-2.90;99.90;;;;;;5022822;28;20220;-61
2024/01/12 00:34:54;;;;;;;43.33;25.90;;;-3.00;99.90;;;;;;5021848;28;20203;-61
2024/01/12 00:37:20;;;;;;;44.87;25.67;;;-3.50;99.90;;;;;;5023156;28;20230;-61
2024/01/12 00:39:47;;;;;;;44.70;26.00;;;-3.00;99.90;;;;;;5025301;28;20216;-61
2024/01/12 00:42:14;;;;;;;48.20;25.70;;;-3.00;99.90;;;;;;5024598;28;20202;-61
2024/01/12 00:44:42;;;;;;;42.17;26.97;;;-3.00;99.90;;;;;;5021379;28;20730;-61
2024/01/12 00:47:08;;;;;;;43.97;26.33;;;-3.00;99.90;;;;;;5021275;28;20234;-60
2024/01/12 00:49:35;;;;;;;43.30;26.43;;;-3.00;99.90;;;;;;5024981;28;20236;-61
2024/01/12 00:52:02;;;;;;;42.40;24.77;;;-3.10;99.90;;;;;;5024785;28;20202;-60
2024/01/12 00:54:28;;;;;;;43.40;25.10;;;-3.10;99.90;;;;;;5022279;28;20233;-60
2024/01/12 00:56:55;;;;;;;41.30;26.27;;;-3.20;99.90;;;;;;5021453;28;20717;-60
2024/01/12 00:59:22;;;;;;;38.97;25.30;;;-3.20;99.90;;;;;;5022656;28;20268;-60
2024/01/12 01:01:53;;;;;;;39.13;25.33;;;-3.20;99.90;;;;;;5024983;28;20204;-61
2024/01/12 01:04:20;;;;;;;41.60;26.07;;;-3.10;99.90;;;;;;5023298;28;20202;-60
2024/01/12 01:06:46;;;;;;;42.57;25.63;;;-3.10;99.90;;;;;;5021361;28;20273;-60
2024/01/12 01:09:13;;;;;;;39.10;24.47;;;-3.10;99.90;;;;;;5021353;28;20692;-61
2024/01/12 01:11:40;;;;;;;41.60;25.93;;;-3.20;99.90;;;;;;5024368;28;20252;-61
2024/01/12 01:14:06;;;;;;;42.30;25.17;;;-3.10;99.90;;;;;;5024141;28;20206;-60
2024/01/12 01:16:33;;;;;;;40.33;24.97;;;-3.10;99.90;;;;;;5021378;28;20231;-61
2024/01/12 01:19:01;;;;;;;40.47;25.80;;;-3.10;99.90;;;;;;5021186;28;20227;-60
2024/01/12 01:21:28;;;;;;;41.60;25.87;;;-3.10;99.90;;;;;;5023023;28;20257;-61
2024/01/12 01:23:55;;;;;;;42.50;25.77;;;-3.10;99.90;;;;;;5024227;28;20206;-60
2024/01/12 01:26:22;;;;;;;41.77;26.20;;;-3.10;99.90;;;;;;5022736;28;20292;-61
2024/01/12 01:28:49;;;;;;;40.57;25.63;;;-3.10;99.90;;;;;;5020698;28;20223;-60
2024/01/12 01:31:15;;;;;;;40.20;25.20;;;-3.10;99.90;;;;;;5021282;28;20581;-60
2024/01/12 01:33:42;;;;;;;45.13;25.33;;;-3.10;99.90;;;;;;5024319;28;20298;-61
2024/01/12 01:36:10;;;;;;;42.40;25.97;;;-3.00;99.90;;;;;;5024134;28;20276;-61
2024/01/12 01:38:37;;;;;;;42.00;25.30;;;-3.00;99.90;;;;;;5020659;28;20257;-60
2024/01/12 01:41:04;;;;;;;46.13;25.57;;;-3.00;99.90;;;;;;5020558;28;20269;-60
2024/01/12 01:43:30;;;;;;;43.40;25.70;;;-2.90;99.90;;;;;;5022923;28;20211;-61
2024/01/12 01:45:57;;;;;;;42.53;25.37;;;-2.90;99.90;;;;;;5023938;28;20201;-60
2024/01/12 01:48:24;;;;;;;40.07;24.30;;;-2.80;99.90;;;;;;5022047;28;20230;-61
2024/01/12 01:50:50;;;;;;;41.90;24.63;;;-2.80;99.90;;;;;;5020667;28;20723;-60
2024/01/12 01:53:19;;;;;;;39.77;25.07;;;-2.70;99.90;;;;;;5020960;28;20225;-60
2024/01/12 01:55:46;;;;;;;42.97;25.87;;;-2.70;99.90;;;;;;5023723;28;20724;-61
2024/01/12 01:58:13;;;;;;;40.43;26.20;;;-2.70;99.90;;;;;;5023947;28;20317;-61
2024/01/12 02:00:40;;;;;;;41.20;25.37;;;-2.80;99.90;;;;;;5012783;28;20199;-60
2024/01/12 02:03:07;;;;;;;38.83;25.13;;;-2.80;99.90;;;;;;5020396;28;20630;-59
2024/01/12 02:05:35;;;;;;;39.77;24.37;;;-2.90;99.90;;;;;;5022804;28;20202;-59
2024/01/12 02:08:02;;;;;;;39.30;24.93;;;-2.80;99.90;;;;;;5023566;28;20252;-59
2024/01/12 02:10:31;;;;;;;42.23;24.83;;;-2.80;99.90;;;;;;5021070;28;20262;-58
2024/01/12 02:12:57;;;;;;;41.17;24.63;;;-2.80;99.90;;;;;;5020403;28;20207;-58
2024/01/12 02:15:24;;;;;;;44.43;25.73;;;-2.80;99.90;;;;;;5021394;28;20207;-60
2024/01/12 02:17:51;;;;;;;41.40;23.77;;;-2.80;99.90;;;;;;5023296;28;20226;-59
2024/01/12 02:20:17;;;;;;;40.03;23.73;;;-2.80;99.90;;;;;;5023385;28;20210;-59
2024/01/12 02:22:45;;;;;;;39.43;24.93;;;-2.80;99.90;;;;;;5022797;28;20590;-59
2024/01/12 02:25:14;;;;;;;38.90;23.90;;;-2.80;99.90;;;;;;5022747;28;20260;-59
2024/01/12 02:27:40;;;;;;;41.87;25.10;;;-2.80;99.90;;;;;;5012079;28;20277;-59
2024/01/12 02:30:08;;;;;;;39.23;24.80;;;-2.90;99.90;;;;;;5019874;28;20203;-59
2024/01/12 02:32:35;;;;;;;36.77;24.07;;;-2.90;99.90;;;;;;5022500;28;20202;-59
2024/01/12 02:35:01;;;;;;;39.13;24.07;;;-2.90;99.90;;;;;;5022936;28;20209;-61
2024/01/12 02:37:28;;;;;;;39.37;24.87;;;-2.90;99.90;;;;;;5020804;28;20237;-58
2024/01/12 02:39:56;;;;;;;37.70;23.80;;;-2.80;99.90;;;;;;5019833;28;20249;-59
2024/01/12 02:42:23;;;;;;;36.87;23.00;;;-2.80;99.90;;;;;;5020737;28;20250;-59
2024/01/12 02:44:49;;;;;;;40.50;23.93;;;-2.80;99.90;;;;;;5023005;28;20273;-59
2024/01/12 02:47:16;;;;;;;36.77;22.60;;;-2.70;99.90;;;;;;5022402;28;20241;-59
2024/01/12 02:49:43;;;;;;;42.23;23.70;;;-2.70;99.90;;;;;;5019625;28;20218;-61
2024/01/12 02:52:09;;;;;;;35.30;22.57;;;-2.70;99.90;;;;;;5019448;28;20647;-59
2024/01/12 02:54:36;;;;;;;38.53;24.07;;;-2.60;99.90;;;;;;5022256;28;20202;-59
2024/01/12 02:57:04;;;;;;;38.80;23.10;;;-2.60;99.90;;;;;;5022722;28;20222;-59
2024/01/12 02:59:31;;;;;;;38.23;22.97;;;-2.70;99.90;;;;;;5020426;28;20697;-59
2024/01/12 03:01:58;;;;;;;39.10;24.60;;;-2.70;99.90;;;;;;5019510;28;20207;-60
2024/01/12 03:04:24;;;;;;;37.93;22.50;;;-2.80;99.90;;;;;;5020849;28;20261;-59
2024/01/12 03:06:51;;;;;;;32.00;21.77;;;-2.90;99.90;;;;;;5022590;28;20576;-60
2024/01/12 03:09:18;;;;;;;36.57;23.07;;;-2.90;99.90;;;;;;5022303;28;20213;-60
2024/01/12 03:11:44;;;;;;;35.60;22.43;;;-3.00;99.90;;;;;;5019481;28;20207;-59
2024/01/12 03:14:12;;;;;;;44.07;24.20;;;-3.10;99.90;;;;;;5019150;28;20521;-59
2024/01/12 03:16:39;;;;;;;36.40;23.23;;;-3.10;99.90;;;;;;5022278;28;20215;-59
2024/01/12 03:19:06;;;;;;;36.37;22.57;;;-3.10;99.90;;;;;;5022619;28;20230;-60
2024/01/12 03:21:32;;;;;;;36.83;23.47;;;-3.10;99.90;;;;;;5020527;28;20422;-60
2024/01/12 03:23:59;;;;;;;38.53;23.70;;;-3.10;99.90;;;;;;5019119;28;20676;-59
2024/01/12 03:26:26;;;;;;;37.20;22.80;;;-3.10;99.90;;;;;;5020757;28;20257;-59
2024/01/12 03:28:52;;;;;;;41.33;24.20;;;-3.20;99.90;;;;;;5022616;28;20223;-59
2024/01/12 03:31:21;;;;;;;39.43;22.13;;;-3.20;99.90;;;;;;5021946;28;20294;-60
2024/01/12 03:33:48;;;;;;;37.70;23.60;;;-3.30;99.90;;;;;;5018984;28;20203;-59
2024/01/12 03:36:16;;;;;;;36.87;21.93;;;-3.40;99.90;;;;;;5022739;28;20210;-59
2024/01/12 03:38:42;;;;;;;38.90;24.00;;;-3.50;99.90;;;;;;5015088;28;20227;-60
2024/01/12 03:41:09;;;;;;;36.80;22.40;;;-3.50;99.90;;;;;;5023027;28;20217;-58
2024/01/12 03:43:36;;;;;;;40.60;24.40;;;-3.50;99.90;;;;;;5025255;28;20349;-59
2024/01/12 03:46:02;;;;;;;37.87;22.77;;;-3.50;99.90;;;;;;5026073;28;20326;-60
2024/01/12 03:48:30;;;;;;;39.90;23.27;;;-3.50;99.90;;;;;;5050635;22;20763;-53
2024/01/12 03:50:57;;;;;;;39.67;23.57;;;-3.50;99.90;;;;;;5034157;28;20217;-51
2024/01/12 03:53:24;;;;;;;40.43;23.40;;;-3.50;99.90;;;;;;5033724;28;20214;-52
2024/01/12 03:55:50;;;;;;;39.10;22.93;;;-3.50;99.90;;;;;;5034149;28;20272;-52
2024/01/12 03:58:17;;;;;;;35.80;22.97;;;-3.50;99.90;;;;;;5025560;28;20357;-52
2024/01/12 04:00:44;;;;;;;41.00;22.93;;;-3.50;99.90;;;;;;5025482;28;20210;-52
2024/01/12 04:03:10;;;;;;;41.53;24.20;;;-3.50;99.90;;;;;;5025722;28;20213;-52
2024/01/12 04:05:39;;;;;;;34.40;22.10;;;-3.50;99.90;;;;;;5022581;28;20271;-52
2024/01/12 04:08:06;;;;;;;37.77;23.20;;;-3.50;99.90;;;;;;5022225;28;20223;-52
2024/01/12 04:10:32;;;;;;;42.57;23.73;;;-3.50;99.90;;;;;;5024109;28;20213;-51
2024/01/12 04:12:59;;;;;;;39.00;22.80;;;-3.40;99.90;;;;;;5025545;28;20276;-51
2024/01/12 04:15:26;;;;;;;38.60;22.43;;;-3.40;99.90;;;;;;5023787;28;20605;-52
2024/01/12 04:17:52;;;;;;;47.47;28.43;;;-3.40;99.90;;;;;;5021860;28;20681;-51
2024/01/12 04:20:19;;;;;;;88.03;53.93;;;-3.40;99.90;;;;;;5022331;28;20199;-51
2024/01/12 04:22:47;;;;;;;49.93;29.60;;;-3.40;99.90;;;;;;5025331;28;20206;-53
2024/01/12 04:25:14;;;;;;;38.13;23.43;;;-3.40;99.90;;;;;;5025081;28;20297;-54
2024/01/12 04:27:41;;;;;;;35.87;22.83;;;-3.30;99.90;;;;;;5021868;28;20214;-52
2024/01/12 04:30:09;;;;;;;34.67;21.10;;;-3.30;99.90;;;;;;5022022;28;20207;-52
2024/01/12 04:32:35;;;;;;;37.37;21.67;;;-3.30;99.90;;;;;;5024144;28;20246;-52
2024/01/12 04:35:02;;;;;;;37.90;23.13;;;-3.40;99.90;;;;;;5025124;28;20564;-52
2024/01/12 04:37:29;;;;;;;36.57;23.27;;;-3.40;99.90;;;;;;5023279;28;20237;-52
2024/01/12 04:39:57;;;;;;;35.53;22.17;;;-3.50;99.90;;;;;;5021691;28;20207;-52
2024/01/12 04:42:23;;;;;;;36.40;22.47;;;-3.50;99.90;;;;;;5022151;28;20215;-52
2024/01/12 04:44:50;;;;;;;36.50;22.83;;;-3.60;99.90;;;;;;5024887;28;20276;-50
2024/01/12 04:47:17;;;;;;;37.17;23.37;;;-3.60;99.90;;;;;;5024081;28;20250;-53
2024/01/12 04:49:43;;;;;;;38.73;23.07;;;-3.70;99.90;;;;;;5013559;28;20203;-51
2024/01/12 04:52:10;;;;;;;35.87;22.80;;;-3.70;99.90;;;;;;5021262;28;20724;-51
2024/01/12 04:54:37;;;;;;;39.07;23.03;;;-3.70;99.90;;;;;;5023499;28;20590;-52
2024/01/12 04:57:04;;;;;;;36.87;22.73;;;-3.70;99.90;;;;;;5024591;28;20313;-52
2024/01/12 04:59:31;;;;;;;39.83;24.00;;;-3.60;99.90;;;;;;5022688;28;20626;-52
2024/01/12 05:01:57;;;;;;;38.27;23.00;;;-3.60;99.90;;;;;;5021268;28;20652;-52
2024/01/12 05:04:24;;;;;;;38.63;23.83;;;-3.60;99.90;;;;;;5021659;28;20245;-52
2024/01/12 05:06:50;;;;;;;41.00;25.23;;;-3.60;99.90;;;;;;5024473;28;20271;-52
2024/01/12 05:09:16;;;;;;;42.17;24.27;;;-3.60;99.90;;;;;;5024385;28;20642;-52
2024/01/12 05:11:43;;;;;;;40.23;24.10;;;-3.60;99.90;;;;;;5021344;28;20215;-53
2024/01/12 05:14:11;;;;;;;40.67;24.00;;;-3.70;99.90;;;;;;5020749;28;20207;-52
2024/01/12 05:16:38;;;;;;;39.87;24.00;;;-3.70;99.90;;;;;;5023399;28;20211;-51
2024/01/12 05:19:04;;;;;;;38.50;23.97;;;-3.70;99.90;;;;;;5024166;28;20233;-52
2024/01/12 05:21:31;;;;;;;40.67;23.53;;;-3.70;99.90;;;;;;5024115;28;20237;-52
2024/01/12 05:23:58;;;;;;;40.17;23.70;;;-3.70;99.90;;;;;;5023961;28;20210;-52
2024/01/12 05:26:25;;;;;;;43.33;23.53;;;-3.70;99.90;;;;;;5023424;28;20238;-53
2024/01/12 05:28:51;;;;;;;41.67;23.47;;;-3.60;99.90;;;;;;5020709;28;20234;-52
2024/01/12 05:31:20;;;;;;;38.43;23.83;;;-3.60;99.90;;;;;;5020481;28;20668;-52
2024/01/12 05:33:46;;;;;;;43.83;24.20;;;-3.60;99.90;;;;;;5012702;28;20207;-53
2024/01/12 05:36:13;;;;;;;44.37;24.47;;;-3.60;99.90;;;;;;5020519;28;20203;-52
2024/01/12 05:38:40;;;;;;;38.53;24.70;;;-3.60;99.90;;;;;;5022828;28;20241;-52
2024/01/12 05:41:06;;;;;;;41.93;24.70;;;-3.60;99.90;;;;;;5024337;28;20240;-52
2024/01/12 05:43:33;;;;;;;39.83;24.13;;;-3.60;99.90;;;;;;5021892;28;20206;-51
2024/01/12 05:45:59;;;;;;;40.33;23.80;;;-3.60;99.90;;;;;;5020475;28;20203;-53
2024/01/12 05:48:28;;;;;;;41.73;24.90;;;-3.60;99.90;;;;;;5021017;28;20649;-51
2024/01/12 05:50:54;;;;;;;42.50;25.60;;;-3.60;99.90;;;;;;5023649;28;20236;-51
2024/01/12 05:53:25;;;;;;;43.43;27.37;;;-3.60;99.90;;;;;;5023170;28;20260;-51
2024/01/12 05:55:52;;;;;;;43.07;26.80;;;-3.50;99.90;;;;;;5020460;28;20207;-52
2024/01/12 05:58:19;;;;;;;45.87;27.33;;;-3.60;99.90;;;;;;5020040;28;20223;-51
2024/01/12 06:00:46;;;;;;;43.97;27.03;;;-3.60;99.90;;;;;;5012257;28;20669;-52
2024/01/12 06:03:13;;;;;;;46.70;27.33;;;-3.50;99.90;;;;;;5021007;28;20290;-51
2024/01/12 06:05:41;;;;;;;39.80;24.67;;;-3.50;99.90;;;;;;5023470;28;20692;-52
2024/01/12 06:08:08;;;;;;;42.13;25.67;;;-3.40;99.90;;;;;;5023809;28;20226;-52
2024/01/12 06:10:35;;;;;;;46.83;25.47;;;-3.40;99.90;;;;;;5021418;28;20214;-52
2024/01/12 06:13:02;;;;;;;44.87;25.13;;;-3.50;99.90;;;;;;5020376;28;20206;-51
2024/01/12 06:15:28;;;;;;;38.57;24.70;;;-3.50;99.90;;;;;;5021125;28;20702;-52
2024/01/12 06:17:57;;;;;;;40.27;23.83;;;-3.50;99.90;;;;;;5023662;28;20632;-52
2024/01/12 06:20:24;;;;;;;36.83;22.93;;;-3.60;99.90;;;;;;5022631;28;20207;-51
2024/01/12 06:22:52;;;;;;;41.17;23.73;;;-3.60;99.90;;;;;;5020140;28;20203;-52
2024/01/12 06:25:19;;;;;;;40.90;24.40;;;-3.70;99.90;;;;;;5019938;28;20623;-52
2024/01/12 06:27:45;;;;;;;38.60;23.00;;;-3.70;99.90;;;;;;5023074;28;20726;-51
2024/01/12 06:30:13;;;;;;;41.10;23.63;;;-3.70;99.90;;;;;;5023075;28;20716;-52
2024/01/12 06:32:40;;;;;;;41.07;24.57;;;-3.70;99.90;;;;;;5020433;28;20214;-52
2024/01/12 06:35:09;;;;;;;36.37;22.70;;;-3.60;99.90;;;;;;5019323;28;20206;-53
2024/01/12 06:37:36;;;;;;;40.70;24.00;;;-3.70;99.90;;;;;;5021573;28;20726;-51
2024/01/12 06:40:05;;;;;;;36.10;22.90;;;-3.60;99.90;;;;;;5023049;28;20206;-52
2024/01/12 06:42:32;;;;;;;33.67;21.83;;;-3.60;99.90;;;;;;5021432;28;20214;-51
2024/01/12 06:44:59;;;;;;;40.70;24.73;;;-3.70;99.90;;;;;;5019224;28;20207;-51
2024/01/12 06:47:27;;;;;;;39.70;23.03;;;-3.70;99.90;;;;;;5019774;28;20285;-51
2024/01/12 06:49:54;;;;;;;39.77;23.43;;;-3.80;99.90;;;;;;5022913;28;20212;-51
2024/01/12 06:52:20;;;;;;;42.27;25.43;;;-3.80;99.90;;;;;;5023089;28;20248;-51
2024/01/12 06:54:47;;;;;;;38.53;23.87;;;-3.80;99.90;;;;;;5022519;28;20199;-52
2024/01/12 06:57:15;;;;;;;40.43;24.70;;;-3.80;99.90;;;;;;5022818;28;20202;-52
2024/01/12 06:59:42;;;;;;;40.93;24.90;;;-3.90;99.90;;;;;;5020209;28;20271;-50
2024/01/12 07:02:08;;;;;;;41.70;24.37;;;-3.90;99.90;;;;;;5019382;28;20591;-51
2024/01/12 07:04:35;;;;;;;39.97;24.23;;;-3.90;99.90;;;;;;5020953;28;20203;-51
2024/01/12 07:07:02;;;;;;;42.53;24.87;;;-3.90;99.90;;;;;;5022795;28;20586;-51
2024/01/12 07:09:29;;;;;;;41.20;23.93;;;-3.90;99.90;;;;;;5022410;28;20755;-52
2024/01/12 07:11:56;;;;;;;38.83;23.57;;;-3.90;99.90;;;;;;5023356;28;20230;-52
2024/01/12 07:14:24;;;;;;;42.47;24.83;;;-3.90;99.90;;;;;;5023178;28;20215;-51
2024/01/12 07:16:51;;;;;;;42.33;24.63;;;-4.00;99.90;;;;;;5026494;28;20210;-52
2024/01/12 07:19:17;;;;;;;41.03;25.27;;;-4.00;99.90;;;;;;5026121;28;20375;-53
2024/01/12 07:21:44;;;;;;;41.33;24.80;;;-4.00;99.90;;;;;;5023562;28;20254;-52
2024/01/12 07:24:11;;;;;;;41.93;24.77;;;-4.00;99.90;;;;;;5022993;28;20214;-52
2024/01/12 07:26:37;;;;;;;44.87;25.33;;;-4.00;99.90;;;;;;5024913;28;20673;-52
2024/01/12 07:29:05;;;;;;;46.60;26.63;;;-4.10;99.90;;;;;;5026161;28;20214;-53
2024/01/12 07:31:35;;;;;;;41.37;26.53;;;-4.10;99.90;;;;;;5024972;28;20202;-54
2024/01/12 07:34:02;;;;;;;43.70;25.60;;;-4.20;99.90;;;;;;5022707;28;20695;-52
2024/01/12 07:36:29;;;;;;;41.37;25.43;;;-4.20;99.90;;;;;;5023517;28;20217;-51
2024/01/12 07:38:56;;;;;;;40.77;25.70;;;-4.10;99.90;;;;;;5026074;28;20229;-51
2024/01/12 07:41:23;;;;;;;42.37;25.37;;;-4.00;99.90;;;;;;5025992;28;20567;-52
2024/01/12 07:43:50;;;;;;;49.40;27.20;;;-3.90;99.90;;;;;;5022642;28;20286;-52
2024/01/12 07:46:17;;;;;;;44.83;27.13;;;-3.80;99.90;;;;;;5022593;28;20199;-51
2024/01/12 07:48:48;;;;;;;46.13;26.60;;;-3.70;99.90;;;;;;5025173;28;20317;-51
2024/01/12 07:51:16;;;;;;;45.53;27.60;;;-3.70;99.90;;;;;;5026035;28;20249;-51
2024/01/12 07:53:42;;;;;;;45.50;26.83;;;-3.60;99.90;;;;;;5023036;28;20739;-52
2024/01/12 07:56:10;;;;;;;46.17;26.43;;;-3.50;99.90;;;;;;5022129;28;20555;-51
2024/01/12 07:58:36;;;;;;;42.87;25.70;;;-3.50;99.90;;;;;;5024200;28;20231;-52
2024/01/12 08:01:05;;;;;;;44.27;25.23;;;-3.40;99.90;;;;;;5025775;28;20206;-51
2024/01/12 08:03:32;;;;;;;42.83;25.07;;;-3.30;99.90;;;;;;5024403;28;20468;-51
2024/01/12 08:06:00;;;;;;;44.97;25.70;;;-3.10;99.90;;;;;;5022276;28;20279;-51
2024/01/12 08:08:27;;;;;;;44.60;26.63;;;-3.00;99.90;;;;;;5022669;28;20638;-51
2024/01/12 08:10:54;;;;;;;43.80;25.53;;;-2.80;99.90;;;;;;5025814;28;20670;-51
2024/01/12 08:13:20;;;;;;;47.63;27.93;;;-2.70;99.90;;;;;;5025518;28;20214;-52
2024/01/12 08:15:47;;;;;;;45.93;27.77;;;-2.60;99.90;;;;;;5022094;28;20205;-50
2024/01/12 08:18:14;;;;;;;42.47;25.63;;;-2.50;99.90;;;;;;5021980;28;20223;-50
2024/01/12 08:20:41;;;;;;;43.30;24.50;;;-2.40;99.90;;;;;;5023756;28;20658;-51
2024/01/12 08:23:09;;;;;;;45.60;24.80;;;-2.30;99.90;;;;;;5025336;28;20206;-51
2024/01/12 08:25:35;;;;;;;40.97;23.70;;;-2.20;99.90;;;;;;5023576;28;20202;-51
2024/01/12 08:28:03;;;;;;;39.43;23.43;;;-2.10;99.90;;;;;;5021722;28;20318;-51
2024/01/12 08:30:29;;;;;;;43.60;25.80;;;-2.30;99.90;;;;;;5022601;28;20705;-51
2024/01/12 08:32:56;;;;;;;44.17;25.83;;;-2.60;99.90;;;;;;5025488;28;20198;-51
2024/01/12 08:35:23;;;;;;;40.13;24.53;;;-3.10;99.90;;;;;;5025507;28;20236;-52
2024/01/12 08:37:49;;;;;;;41.60;25.73;;;-3.50;99.90;;;;;;5021963;28;20230;-51
2024/01/12 08:40:18;;;;;;;41.87;25.60;;;-3.20;99.90;;;;;;5021602;28;20210;-51
2024/01/12 08:42:44;;;;;;;39.77;25.37;;;-3.00;99.90;;;;;;5024697;28;20210;-51
2024/01/12 08:45:12;;;;;;;47.70;26.77;;;-2.70;99.90;;;;;;5024981;28;20264;-51
2024/01/12 08:47:38;;;;;;;42.33;25.60;;;-2.50;99.90;;;;;;5022822;28;20234;-50
2024/01/12 08:50:06;;;;;;;47.83;27.67;;;-2.30;99.90;;;;;;5021409;28;20731;-51
2024/01/12 08:52:33;;;;;;;43.33;26.93;;;-2.00;99.90;;;;;;5022407;28;20206;-52
2024/01/12 08:55:00;;;;;;;41.97;26.57;;;-1.70;99.90;;;;;;5024700;28;20589;-51
2024/01/12 08:57:28;;;;;;;39.63;24.70;;;-1.60;99.90;;;;;;5024389;28;20213;-51
2024/01/12 08:59:55;;;;;;;41.53;24.83;;;-1.70;99.90;;;;;;5021235;28;20222;-50
2024/01/12 09:02:21;;;;;;;39.07;24.33;;;-2.10;99.90;;;;;;5021235;28;20701;-51
2024/01/12 09:04:48;;;;;;;37.37;24.20;;;-2.60;99.90;;;;;;5023866;28;20233;-59
2024/01/12 09:07:15;;;;;;;39.90;25.20;;;-3.00;99.90;;;;;;5024683;28;20202;-52
2024/01/12 09:09:41;;;;;;;42.57;23.47;;;-3.00;99.90;;;;;;5022197;28;20300;-55
2024/01/12 09:12:08;;;;;;;36.87;24.60;;;-2.70;99.90;;;;;;5021179;28;20203;-54
2024/01/12 09:14:36;;;;;;;40.40;25.07;;;-2.50;99.90;;;;;;5022165;28;20269;-58
2024/01/12 09:17:03;;;;;;;39.10;24.23;;;-2.20;99.90;;;;;;5024360;28;20637;-59
2024/01/12 09:19:30;;;;;;;40.13;25.67;;;-1.80;99.90;;;;;;5023317;28;20230;-58
2024/01/12 09:21:57;;;;;;;40.37;24.80;;;-1.70;99.90;;;;;;5016455;28;20211;-50
2024/01/12 09:24:23;;;;;;;40.03;24.17;;;-1.60;99.90;;;;;;5020767;28;20215;-51
2024/01/12 09:26:50;;;;;;;35.40;23.33;;;-1.40;99.90;;;;;;5023798;28;20676;-51
2024/01/12 09:29:17;;;;;;;37.43;22.87;;;-1.10;99.90;;;;;;5024026;28;20221;-51
2024/01/12 09:31:45;;;;;;;33.97;22.50;;;-0.90;99.90;;;;;;5022097;28;20696;-50
2024/01/12 09:34:11;;;;;;;35.60;23.03;;;-0.70;99.90;;;;;;5023503;28;20203;-50
2024/01/12 09:36:38;;;;;;;34.80;21.63;;;-0.40;99.90;;;;;;5022393;28;20237;-52
2024/01/12 09:39:05;;;;;;;37.43;22.77;;;-0.20;99.90;;;;;;5020486;28;20226;-50
2024/01/12 09:41:44;;;;;;;36.93;23.87;;;0.00;99.90;;;;;;5021526;28;20587;-50
2024/01/12 09:44:12;;;;;;;36.60;24.00;;;0.10;99.90;;;;;;5024309;28;20202;-50
2024/01/12 09:46:49;;;;;;;36.57;23.50;;;0.20;99.90;;;;;;5021895;28;20213;-50
2024/01/12 09:49:16;;;;;;;35.73;22.97;;;0.30;99.90;;;;;;5050985;22;20652;-54
2024/01/12 09:51:44;;;;;;;34.03;23.73;;;0.30;99.90;;;;;;5032350;28;20333;-54
2024/01/12 09:54:10;;;;;;;35.20;24.20;;;0.30;99.90;;;;;;5032325;28;20228;-58
2024/01/12 09:56:37;;;;;;;35.47;23.80;;;0.40;99.90;;;;;;5031948;28;20201;-57
2024/01/12 09:59:04;;;;;;;41.67;24.43;;;0.40;99.90;;;;;;5023486;28;20230;-66
2024/01/12 10:01:32;;;;;;;36.97;23.43;;;0.50;99.90;;;;;;5023259;28;20209;-64
2024/01/12 10:04:00;;;;;;;38.60;22.97;;;0.60;99.90;;;;;;5020488;28;20294;-61
2024/01/12 10:06:26;;;;;;;36.33;24.97;;;0.60;99.90;;;;;;5020209;28;20206;-59
2024/01/12 10:08:53;;;;;;;34.93;23.13;;;0.30;99.90;;;;;;5012545;28;20226;-67
2024/01/12 10:11:20;;;;;;;43.67;24.47;;;0.40;99.90;;;;;;5020839;28;20210;-66
2024/01/12 10:13:48;;;;;;;32.97;23.27;;;0.60;99.90;;;;;;5022957;28;20641;-64
2024/01/12 10:16:16;;;;;;;33.63;22.60;;;0.80;99.90;;;;;;5024296;28;20205;-66
2024/01/12 10:18:43;;;;;;;36.77;23.80;;;1.00;99.90;;;;;;5021719;28;20230;-65
2024/01/12 10:21:11;;;;;;;37.40;24.47;;;1.00;99.90;;;;;;5020918;28;20281;-65
2024/01/12 10:23:38;;;;;;;32.73;21.27;;;1.00;99.90;;;;;;5021931;28;20219;-65
2024/01/12 10:26:06;;;;;;;33.60;22.43;;;0.90;99.90;;;;;;5024019;28;20702;-65
2024/01/12 10:28:33;;;;;;;33.20;21.67;;;0.80;99.90;;;;;;5023656;28;20222;-67
2024/01/12 10:31:05;;;;;;;34.33;22.80;;;0.80;99.90;;;;;;5020676;28;20203;-66
2024/01/12 10:33:32;;;;;;;34.20;22.03;;;0.90;99.90;;;;;;5020464;28;20668;-65
2024/01/12 10:36:06;;;;;;;33.53;21.87;;;1.00;99.90;;;;;;5024067;28;20199;-66
2024/01/12 10:38:36;;;;;;;32.27;20.77;;;0.80;99.90;;;;;;5022561;28;20225;-66
2024/01/12 10:41:06;;;;;;;34.77;21.60;;;0.50;99.90;;;;;;5020344;28;20298;-65
2024/01/12 10:43:36;;;;;;;33.03;21.60;;;0.50;99.90;;;;;;5020565;28;20213;-66
2024/01/12 10:46:11;;;;;;;32.93;22.40;;;0.40;99.90;;;;;;5023020;28;20279;-62
2024/01/12 10:48:43;;;;;;;33.87;22.57;;;0.40;99.90;;;;;;5022122;28;20234;-64
2024/01/12 10:51:13;;;;;;;34.67;22.73;;;0.50;99.90;;;;;;5020009;28;20225;-63
2024/01/12 10:53:51;;;;;;;29.90;20.60;;;0.60;99.90;;;;;;5020811;28;20238;-64
2024/01/12 10:56:18;;;;;;;34.17;21.93;;;0.70;99.90;;;;;;5023608;28;20259;-65
2024/01/12 10:58:48;;;;;;;33.87;21.43;;;0.90;99.90;;;;;;5021222;28;20225;-58
2024/01/12 11:01:15;;;;;;;32.97;21.50;;;1.10;99.90;;;;;;5020080;28;20238;-57
2024/01/12 11:03:43;;;;;;;31.17;20.37;;;1.00;99.90;;;;;;5021382;28;20211;-58
2024/01/12 11:06:11;;;;;;;32.70;21.13;;;1.00;99.90;;;;;;5023344;28;20264;-57
2024/01/12 11:08:38;;;;;;;31.70;20.20;;;1.20;99.90;;;;;;5022398;28;20233;-57
2024/01/12 11:11:10;;;;;;;30.33;20.73;;;1.30;99.90;;;;;;5019902;28;20209;-58
2024/01/12 11:13:37;;;;;;;34.47;20.53;;;1.30;99.90;;;;;;5020571;28;20210;-56
2024/01/12 11:16:04;;;;;;;32.13;21.93;;;1.40;99.90;;;;;;5023218;28;20222;-55
2024/01/12 11:18:33;;;;;;;31.10;20.63;;;1.50;99.90;;;;;;5023112;28;20922;-54
2024/01/12 11:21:03;;;;;;;30.63;20.83;;;1.40;99.90;;;;;;5019847;28;20203;-54
2024/01/12 11:23:29;;;;;;;29.30;18.50;;;1.40;99.90;;;;;;5019743;28;20242;-54
2024/01/12 11:25:57;;;;;;;30.57;19.40;;;1.40;99.90;;;;;;5012036;28;20214;-54
2024/01/12 11:28:35;;;;;;;27.07;18.60;;;1.50;99.90;;;;;;5019680;28;20297;-54
2024/01/12 11:31:02;;;;;;;27.03;18.80;;;1.60;99.90;;;;;;5012870;28;20685;-54
2024/01/12 11:33:30;;;;;;;29.67;17.90;;;1.60;99.90;;;;;;5019506;28;20211;-54
2024/01/12 11:36:05;;;;;;;29.87;17.97;;;1.70;99.90;;;;;;5011910;28;20208;-55
2024/01/12 11:38:40;;;;;;;30.77;19.07;;;1.70;99.90;;;;;;5019620;28;20627;-55
2024/01/12 11:41:10;;;;;;;28.47;18.40;;;1.50;99.90;;;;;;5023206;28;20210;-56
2024/01/12 11:43:39;;;;;;;31.77;19.10;;;1.70;99.90;;;;;;5022167;28;20453;-54
2024/01/12 11:46:06;;;;;;;29.63;18.97;;;1.50;99.90;;;;;;5020033;28;20222;-54
2024/01/12 11:48:33;;;;;;;27.93;18.83;;;1.50;99.90;;;;;;5019905;28;20243;-53
2024/01/12 11:51:00;;;;;;;27.63;17.83;;;1.50;99.90;;;;;;5023120;28;20206;-56
2024/01/12 11:53:27;;;;;;;23.40;16.43;;;1.70;99.90;;;;;;5023037;28;20206;-56
2024/01/12 11:55:54;;;;;;;27.60;17.27;;;2.00;99.90;;;;;;5021301;28;20203;-55
2024/01/12 11:58:20;;;;;;;23.63;16.77;;;2.00;99.90;;;;;;5023127;28;20629;-57
2024/01/12 12:00:50;;;;;;;24.70;16.57;;;2.10;99.90;;;;;;5025604;28;20285;-56
2024/01/12 12:03:17;;;;;;;26.50;17.20;;;2.30;99.90;;;;;;5027304;28;20374;-62
2024/01/12 12:05:44;;;;;;;25.50;17.77;;;2.40;99.90;;;;;;5024489;28;20210;-55
2024/01/12 12:08:11;;;;;;;26.70;18.63;;;2.50;99.90;;;;;;5023186;28;20674;-57
2024/01/12 12:10:37;;;;;;;26.00;18.70;;;2.60;99.90;;;;;;5024763;28;20325;-55
2024/01/12 12:13:08;;;;;;;27.00;18.33;;;2.70;99.90;;;;;;5026907;28;20206;-55
2024/01/12 12:15:35;;;;;;;27.27;19.60;;;2.80;99.90;;;;;;5025795;28;20215;-55
2024/01/12 12:18:05;;;;;;;24.67;17.23;;;3.00;99.90;;;;;;5023384;28;20227;-54
2024/01/12 12:20:32;;;;;;;26.63;17.70;;;3.30;99.90;;;;;;5022725;28;20775;-55
2024/01/12 12:22:59;;;;;;;23.90;16.33;;;3.30;99.90;;;;;;5026158;28;20198;-56
2024/01/12 12:25:27;;;;;;;22.77;16.60;;;3.30;99.90;;;;;;5026014;28;20230;-54
2024/01/12 12:27:54;;;;;;;21.30;16.13;;;3.30;99.90;;;;;;5022954;28;20652;-54